Tiempo atmosférico en la estación meteorológica de Sigüenza, Guadalajara (1044 m.)



Fecha
DESCASC
Temp. máxima en grados centígrados (hora)
DESCASC
Temp. mínima en grados centígrados (hora)
DESCASC
Temp. media en grados centígrados
DESCASC
Racha de viento máxima en m/sg (hora)
DESCASC
Velocidad máxima media en intervalos de 10 minutos(hora)
DESCASC
Precipitaciones diarias en mm
DESCASC
Precipitaciones de 00:00 a 06:00 en mm
DESCASC
Precipitaciones de 06:00 a 12:00 en mm
DESCASC
Precipitaciones de 12:00 a 18:00 en mm
DESCASC
Precipitaciones de 18:00 a 24:00 en mm
DESCASC
20-09-2020 19.9 (16:20) 10.6 (01:10) 15.3 8.61 (17:20) 4.44 (15:00) 4.4 0 0 0 4.4
19-09-2020 15.3 (15:10) 11.6 (23:59) 13.5 14.44 (03:30) 5.83 (03:30) 12.8 1.8 2.2 1.2 7.6
18-09-2020 20.6 (17:30) 12.2 (23:40) 16.4 13.89 (19:20) 7.22 (19:20) 9.8 7 0.4 0.2 2.2
17-09-2020 24.9 (15:30) 13.5 (00:00) 19.2 11.67 (17:10) 6.67 (17:10) 2.2 0 0 0 2.2
16-09-2020 29.1 (15:20) 9.7 (00:00) 19.4 7.5 (15:50) 3.89 (15:20) 1.2 0 0 0 1.2
15-09-2020 26.1 (15:20) 12.7 (00:00) 19.4 7.78 (16:20) 3.61 (14:30) 2 0 2 0 0
14-09-2020 27.2 (14:50) 8 (00:00) 17.6 10.83 (13:10) 5.56 (13:10) 0 0 0 0 0
13-09-2020 30.2 (16:10) 8.1 (00:00) 19.2 8.89 (13:40) 3.89 (13:50) 0 0 0 0 0
12-09-2020 29.9 (15:00) 8.5 (00:00) 19.2 5.83 (12:10) 2.5 (18:30) 0 0 0 0 0
11-09-2020 28.9 (16:30) 5.1 (00:00) 17 7.22 (17:20) 2.5 (16:00) 0 0 0 0 0
10-09-2020 26.3 (17:20) 8.1 (00:00) 17.2 9.17 (16:30) 3.61 (12:40) 0 0 0 0 0
09-09-2020 25.2 (14:10) 4.9 (00:00) 15.1 8.61 (16:40) 2.5 (15:20) 0 0 0 0 0
08-09-2020 23.5 (17:20) 3 (00:00) 13.3 9.44 (14:40) 3.33 (17:40) 0 0 0 0 0
07-09-2020 21.1 (17:10) 8.7 (07:20) 14.9 12.78 (10:40) 5 (11:50) 0 0 0 0 0
06-09-2020 29.9 (16:10) 10.6 (00:00) 20.3 7.5 (18:00) 3.33 (14:40) 0 0 0 0 0
05-09-2020 31 (14:50) 7.7 (00:00) 19.3 6.67 (18:20) 3.06 (18:10) 0 0 0 0 0
04-09-2020 30.1 (16:50) 7.5 (00:00) 18.8 6.67 (14:00) 3.06 (11:30) -- -- 0 0 0
03-09-2020 29 (17:30) 4.8 (00:00) 16.9 6.67 (18:20) 2.78 (15:00) -- 0 0 0 --
02-09-2020 24.8 (18:00) 8 (00:00) 16.4 6.39 (10:40) 3.06 (09:30) 0 0 0 0 0
01-09-2020 25.4 (16:10) 7 (00:00) 16.2 7.22 (17:50) 2.78 (20:50) 0 0 0 0 0
31-08-2020 22.9 (16:00) 1.2 (00:00) 12 6.94 (17:20) 3.61 (16:30) 0 0 0 0 0
30-08-2020 19.3 (18:20) 2.5 (00:00) 10.9 6.94 (18:00) 3.06 (16:00) 0 0 0 0 0
29-08-2020 20.5 (14:40) 8.4 (00:00) 14.4 13.06 (18:40) 4.72 (18:30) 0 0 0 0 0
28-08-2020 29.2 (15:10) 12.3 (00:00) 20.8 10 (11:10) 3.89 (18:30) 0 0 0 0 0
27-08-2020 33.4 (16:10) 11.7 (00:00) 22.6 6.67 (17:30) 3.06 (15:40) 0 0 0 0 0
26-08-2020 33.9 (15:50) 10.1 (00:00) 22 10 (14:50) 5 (14:50) 0 0 0 0 0
25-08-2020 -- (--) -- (--) -- -- (--) -- (--) -- -- 0 0 --
24-08-2020 30.3 (16:10) 13.1 (00:00) 21.7 8.06 (18:30) 3.33 (15:40) -- 0 0 0 --

Gráficas

Temp. máximas Temp. mínimas Temp. medias Precipitaciones Rachas de viento máximas Velocidades máximas media en intervalos de 10 minutos

Datos horarios

Fecha y hora oficial Temperatura (ºC) Velocidad del viento (km/h) Dirección del viento Racha (km/h) Dirección de racha Precipitación (mm) Presión (hPa) Tendencia (hPa) Humedad (%)
2020-09-22 23:00:00 13.2 0 Calma 4 Este 0 902.7 1.1 76
2020-09-22 22:00:00 15.4 0 Calma 4 Norte 0 902.5 1.3 70
2020-09-22 21:00:00 16.4 2 Norte 12 Oeste 0 902.1 0.7 61
2020-09-22 20:00:00 18.6 4 Sudoeste 19 Sudoeste 0 901.6 -- 50
2020-09-22 19:00:00 19.6 9 Sudoeste 22 Sudoeste 0 901.2 -- 44
2020-09-22 18:00:00 20.3 7 Sudoeste 23 Sudoeste 0 901.4 -- 42
2020-09-22 17:00:00 21 10 Sudoeste 26 Sudoeste 0 901.8 -- 40
2020-09-22 16:00:00 20.9 10 Sudoeste 22 Sudoeste 0 902.3 -- 40
2020-09-22 15:00:00 21 6 Sudoeste 22 Sudoeste 0 902.9 -- 46
2020-09-22 14:00:00 20.9 9 Sudoeste 21 Sur 0 903.3 -- 46
2020-09-22 13:00:00 20.5 7 Sudoeste 21 Sudoeste 0 903.8 -- 49
2020-09-22 12:00:00 17.6 4 Sur 11 Sur 0 904.3 -- 63
2020-09-22 11:00:00 14.6 6 Sur 9 Sudoeste 0 904.3 -- 77
2020-09-22 10:00:00 10.7 0 Calma 7 Nordeste 0 904.2 -- 94
2020-09-22 09:00:00 8.7 4 Nordeste 6 Nordeste 0 904 -- 95
2020-09-22 08:00:00 7.2 0 Calma 10 Norte 0 903.9 -- 95
2020-09-22 07:00:00 7.4 5 Norte 7 Nordeste 0 903.9 -- 95
2020-09-22 06:00:00 7.8 2 Nordeste 8 Nordeste 0 904 -- 94
2020-09-22 05:00:00 8.2 2 Nordeste 6 Nordeste 0 904.2 -- 94
2020-09-22 04:00:00 8.7 4 Norte 9 Norte 0 904.6 -- 93
2020-09-22 03:00:00 9.3 4 Nordeste 8 Nordeste 0 905.1 -- 92
2020-09-22 02:00:00 10.4 2 Este 8 Nordeste 0 905.4 -- 89
2020-09-22 01:00:00 11.8 0 Calma 8 Norte 0 905.5 -- 84
2020-09-22 00:00:00 13.3 4 Nordeste 14 Nordeste 0 905.7 -- 78
2020-09-21 23:00:00 13.6 2 Sudeste 18 Nordeste 0 906 -- 80
2020-09-21 22:00:00 14.5 7 Nordeste 29 Noroeste 0 905.7 -- 73
2020-09-21 21:00:00 16.6 4 Noroeste 13 Noroeste 0 905.1 -- 69
2020-09-21 20:00:00 17.7 0 Calma 10 Noroeste 0 904.5 -- 67
2020-09-21 19:00:00 19.5 4 Sudoeste 12 Sudoeste 0 904.5 -- 57
2020-09-21 18:00:00 19.8 2 Noroeste 14 Sur 0 904.5 -- 51
2020-09-21 17:00:00 21 6 Sur 19 Sudoeste 0 904.6 -- 48
2020-09-21 16:00:00 20.2 5 Sudeste 18 Sur 0 905 -- 53
2020-09-21 15:00:00 20 6 Oeste 18 Sudoeste 0 905.5 -- 57
2020-09-21 14:00:00 18.1 5 Sudoeste 15 Sudoeste 0 906.1 -- 63
2020-09-21 13:00:00 17.2 3 Oeste 13 Sudoeste 0 906.3 -- 70
2020-09-21 12:00:00 16.4 3 Oeste 12 Sudoeste 0 906.4 -- 75
2020-09-21 11:00:00 15 5 Sudoeste 11 Sur 0 906.4 -- 84
2020-09-21 10:00:00 13.7 2 Nordeste 5 Nordeste 0 906.2 -- 92
2020-09-21 09:00:00 13 0 Calma 4 Sudeste 0 906 -- 95
2020-09-21 08:00:00 12.8 0 Calma 6 Norte 0 905.7 -- 95
2020-09-21 07:00:00 12.8 2 Nordeste 5 Nordeste 0 905.3 -- 95
2020-09-21 06:00:00 12.6 0 Calma 3 Norte 0 905.1 -- 95
2020-09-21 05:00:00 13.1 0 Calma 5 Nordeste 0 905.3 -- 95
2020-09-21 04:00:00 12.7 0 Calma 6 Norte 0 905.5 -- 95
2020-09-21 03:00:00 13.1 0 Calma 5 Norte 0 905.7 -- 95
2020-09-21 02:00:00 13.1 0 Calma 6 Norte 0 906 -- 95
2020-09-21 01:00:00 13.4 0 Calma 5 Norte 0 906 -- 94
2020-09-21 00:00:00 13.4 0 Calma 5 Este 0 906 -- 95
2020-09-20 23:00:00 13.3 2 Este 8 Norte 1.8 905.9 -- 94
2020-09-20 22:00:00 13.1 0 Calma 8 Norte 0 906 -- 93
2020-09-20 21:00:00 13.4 0 Calma 3 Noroeste 0 905.5 -- 90
2020-09-20 20:00:00 14.6 3 Sur 23 Sudoeste 2.4 905.2 -- 87
2020-09-20 19:00:00 16.2 6 Oeste 31 Sudoeste 0.2 904.8 -- 84
2020-09-20 18:00:00 18.7 12 Sudoeste 31 Sudoeste 0 904.2 -- 66
2020-09-20 17:00:00 19.5 13 Sur 28 Sudoeste 0 904.1 -- 62
2020-09-20 16:00:00 18.3 8 Sudoeste 24 Sudoeste 0 904.6 -- 69
2020-09-20 15:00:00 18.5 16 Sudoeste 25 Sudoeste 0 905.1 -- 67
2020-09-20 14:00:00 16.5 10 Sudoeste 22 Sur 0 905.6 -- 77
2020-09-20 13:00:00 15.8 10 Sudoeste 24 Sudoeste 0 905.9 -- 77
2020-09-20 12:00:00 15.1 12 Sudoeste 25 Sudoeste 0 905.9 -- 82
2020-09-20 11:00:00 15 9 Sudoeste 22 Sudoeste 0 905.8 -- 85
2020-09-20 10:00:00 14.1 9 Sudoeste 17 Sur 0 905.5 -- 89
2020-09-20 09:00:00 13.6 3 Sudoeste 12 Sudoeste 0 905.4 -- 91
2020-09-20 08:00:00 13 3 Sudoeste 10 Oeste 0 905.1 -- 93
2020-09-20 07:00:00 12.8 4 Norte 6 Nordeste 0 905 -- 92
2020-09-20 06:00:00 12.9 3 Sudoeste 9 Sudoeste 0 904.9 -- 91
2020-09-20 05:00:00 12.3 0 Calma 6 Nordeste 0 905.2 -- 93
2020-09-20 04:00:00 12.2 2 Nordeste 8 Sudoeste 0 905.2 -- 92
2020-09-20 03:00:00 11.9 3 Sur 6 Norte 0 905.5 -- 95
2020-09-20 02:00:00 11.3 0 Calma 5 Norte 0 905.6 -- 94
2020-09-20 01:00:00 10.7 0 Calma 5 Sur 0 905.5 -- 92
2020-09-20 00:00:00 11.6 4 Sudoeste 9 Sudoeste 0 905.5 -- 91
2020-09-19 23:00:00 12.3 0 Calma 11 Sudoeste 0 905.5 -- 91
2020-09-19 22:00:00 13.1 4 Sur 13 Sudoeste 0.2 904.9 -- 90
2020-09-19 21:00:00 14.1 6 Sur 14 Sudoeste 7.2 904.4 -- 88
2020-09-19 20:00:00 14.5 4 Sudoeste 20 Sudoeste 0.2 904.1 -- 86
2020-09-19 19:00:00 14.9 12 Sudoeste 30 Sudoeste 0 903.7 -- 83
2020-09-19 18:00:00 14.6 8 Sudoeste 28 Sur 0.2 903.3 -- 87
2020-09-19 17:00:00 14.7 15 Sudoeste 31 Sur 0.2 903.5 -- 87
2020-09-19 16:00:00 14.7 14 Sudoeste 35 Sudoeste 0.2 903.5 -- 86
2020-09-19 15:00:00 15.1 16 Sudoeste 34 Sur 0.2 903.4 -- 85
2020-09-19 14:00:00 14.1 18 Sudoeste 35 Sur 0.2 903.6 -- 88
2020-09-19 13:00:00 14.3 18 Sudoeste 39 Sudoeste 0.2 903.6 -- 83
2020-09-19 12:00:00 14.1 17 Sudoeste 39 Sudoeste 0.2 903.5 -- 85
2020-09-19 11:00:00 13.7 19 Sur 37 Sudoeste 0.4 903.1 -- 87
2020-09-19 10:00:00 13.4 20 Sur 37 Sudoeste 0.4 902.6 -- 88
2020-09-19 09:00:00 13.4 13 Sur 32 Sudoeste 0.4 902.4 -- 88
2020-09-19 08:00:00 13.1 12 Sudoeste 43 Sur 0.4 902.1 -- 89
2020-09-19 07:00:00 13 12 Sur 25 Sur 0.4 901.7 -- 91
2020-09-19 06:00:00 12.6 10 Sudoeste 18 Sudoeste 0.4 901.9 -- 94
2020-09-19 05:00:00 11.7 2 Sur 24 Sudoeste 0.4 902 -- 92
2020-09-19 04:00:00 12.1 12 Sudoeste 52 Sudoeste 0.4 902.4 -- 88
2020-09-19 03:00:00 13.9 19 Sur 39 Sur 0.2 902.1 -- 87
2020-09-19 02:00:00 13.7 6 Sur 23 Sudoeste 0.4 902 -- 88
2020-09-19 01:00:00 13.9 9 Sur 20 Sur 0 902.1 -- 86
2020-09-19 00:00:00 12.8 6 Sur 17 Sur 0 902.7 -- 91
2020-09-18 23:00:00 12.4 2 Oeste 15 Sur 0 903.1 -- 91
2020-09-18 22:00:00 12.5 4 Norte 15 Sudeste 0.6 902.6 -- 90
2020-09-18 21:00:00 12.7 3 Sudoeste 17 Sur 0.8 902.5 -- 90
2020-09-18 20:00:00 13.7 12 Sur 50 Sudoeste 0.8 902.6 -- 86
2020-09-18 19:00:00 17.8 21 Sur 39 Sudoeste 0 901.9 -- 67
2020-09-18 18:00:00 19.3 16 Sur 30 Sur 0 901.8 -- 56
2020-09-18 17:00:00 20.1 15 Sur 33 Sur 0 901.3 -- 54
2020-09-18 16:00:00 19.9 17 Sur 34 Sur 0 901.5 -- 54
2020-09-18 15:00:00 18.3 15 Sur 33 Sudeste 0.2 902 -- 65
2020-09-18 14:00:00 17.7 15 Sur 35 Sudoeste 0 902.9 -- 74
2020-09-18 13:00:00 18.5 14 Sur 33 Sur 0 902.4 -- 66
2020-09-18 12:00:00 18.4 15 Sur 34 Sudoeste 0 903 -- 68
2020-09-18 11:00:00 17.6 12 Sur 29 Sur 0 902.6 -- 71
2020-09-18 10:00:00 17 10 Sur 23 Sur 0 902.1 -- 80
2020-09-18 09:00:00 16.1 5 Sudeste 23 Sur 0 901.5 -- 80
2020-09-18 08:00:00 15.9 11 Sur 25 Sur 0 901 -- 82
2020-09-18 07:00:00 16.4 12 Sur 33 Sudoeste 0.4 901 -- 85
2020-09-18 06:00:00 16.8 12 Sur 33 Sudeste 0.8 901.2 -- 86
2020-09-18 05:00:00 16.2 7 Sur 19 Sur 1 901.3 -- 89
2020-09-18 04:00:00 15.8 2 Sur 12 Nordeste 1.4 901.5 -- 92
2020-09-18 03:00:00 15.9 3 Nordeste 8 Nordeste 1.4 902.3 -- 94
2020-09-18 02:00:00 16 3 Sur 15 Sudoeste 1 902.9 -- 92
2020-09-18 01:00:00 16.4 3 Sudeste 15 Sudeste 1.4 903 -- 89
2020-09-18 00:00:00 16.2 3 Este 42 Sur 2 903.4 -- 90
2020-09-17 23:00:00 16 4 Norte 9 Norte 0.2 902.8 -- 80
2020-09-17 22:00:00 16.4 2 Nordeste 9 Nordeste 0 902.6 -- 75
2020-09-17 21:00:00 17.9 0 Calma 7 Nordeste 0 902.4 -- 70
2020-09-17 20:00:00 20.4 0 Calma 21 Sudoeste 0 902.5 -- 62
2020-09-17 19:00:00 21.8 9 Sur 30 Sudoeste 0 902.6 -- 55
2020-09-17 18:00:00 22.6 15 Sur 42 Sur 0 902.8 -- 54
2020-09-17 17:00:00 23.1 23 Sur 40 Sur 0 903.1 -- 49
2020-09-17 16:00:00 24.5 22 Sur 41 Sudoeste 0 902.9 -- 42
2020-09-17 15:00:00 24.5 19 Sur 40 Sur 0 903.3 -- 44
2020-09-17 14:00:00 23.2 16 Sur 33 Sur 0 903.9 -- 47
2020-09-17 13:00:00 22.7 13 Sur 30 Sur 0 904 -- 49
2020-09-17 12:00:00 21 4 Sudeste 9 Sur 0 904.6 -- 57
2020-09-17 11:00:00 19 5 Sudoeste 10 Sudoeste 0 904.9 -- 66
2020-09-17 10:00:00 17.5 0 Calma 5 Nordeste 0 904.8 -- 78
2020-09-17 09:00:00 16.3 0 Calma 4 Sudoeste 0 904.9 -- 80
2020-09-17 08:00:00 16.2 4 Sudoeste 9 Sur 0 904.8 -- 77
2020-09-17 07:00:00 17.6 2 Sudoeste 24 Sur 0 904.4 -- 70
2020-09-17 06:00:00 17.5 9 Sur 21 Sudoeste 0 904.6 -- 69
2020-09-17 05:00:00 13.6 3 Norte 9 Norte 0 904.9 -- 88
2020-09-17 04:00:00 14.2 2 Este 6 Nordeste 0 905.4 -- 86
2020-09-17 03:00:00 14.9 3 Nordeste 6 Nordeste 0 905.7 -- 84
2020-09-17 02:00:00 15.6 2 Oeste 6 Nordeste 0 905.9 -- 82
2020-09-17 01:00:00 17.4 3 Nordeste 6 Norte 0 906 -- 76
2020-09-17 00:00:00 19.4 2 Sudoeste 14 Nordeste 0 906.3 -- 69
2020-09-16 23:00:00 20.6 8 Nordeste 14 Nordeste 0 905.9 -- 59
2020-09-16 22:00:00 20.1 7 Nordeste 19 Sudoeste 0 905.7 -- 64
2020-09-16 21:00:00 18.8 7 Sudoeste 18 Sur 0.8 905.9 -- 75
2020-09-16 20:00:00 19.5 4 Nordeste 18 Este 0.4 905.1 -- 78
2020-09-16 19:00:00 25.5 8 Este 26 Nordeste 0 905.4 -- 37
2020-09-16 18:00:00 27.8 8 Este 24 Este 0 905 -- 31
2020-09-16 17:00:00 28.5 9 Sudoeste 23 Sudoeste 0 905.2 -- 26
2020-09-16 16:00:00 28.5 8 Sur 27 Sur 0 905.8 -- 26
2020-09-16 15:00:00 28.9 8 Sur 24 Sur 0 906.5 -- 26
2020-09-16 14:00:00 28.1 5 Sudeste 21 Sudoeste 0 907.1 -- 29
2020-09-16 13:00:00 27.1 7 Sur 16 Sudoeste 0 907.8 -- 32
2020-09-16 12:00:00 24.6 4 Sudoeste 13 Norte 0 908.1 -- 44
2020-09-16 11:00:00 20.1 0 Calma 6 Nordeste 0 908.4 -- 62
2020-09-16 10:00:00 15.1 0 Calma 8 Norte 0 908.8 -- 82
2020-09-16 09:00:00 11 3 Nordeste 8 Nordeste 0 908.9 -- 90
2020-09-16 08:00:00 10 4 Nordeste 6 Nordeste 0 908.8 -- 90
2020-09-16 07:00:00 10.2 2 Nordeste 8 Nordeste 0 908.7 -- 90
2020-09-16 06:00:00 10.3 3 Nordeste 10 Norte 0 908.7 -- 89
2020-09-16 05:00:00 10.6 4 Nordeste 10 Nordeste 0 909.1 -- 88
2020-09-16 04:00:00 10.1 3 Nordeste 7 Norte 0 909.2 -- 89
2020-09-16 03:00:00 10.5 5 Nordeste 9 Nordeste 0 909.3 -- 88
2020-09-16 02:00:00 11.1 5 Nordeste 8 Nordeste 0 909.5 -- 87
2020-09-16 01:00:00 12.1 3 Nordeste 10 Norte 0 909.4 -- 83
2020-09-16 00:00:00 12.8 4 Nordeste 11 Norte 0 909.3 -- 83
2020-09-15 23:00:00 14.2 3 Nordeste 5 Nordeste 0 909.3 -- 78
2020-09-15 22:00:00 16.2 3 Norte 6 Nordeste 0 909 -- 70
2020-09-15 21:00:00 19.4 0 Calma 6 Sudoeste 0 908.3 -- 58
2020-09-15 20:00:00 22.9 3 Sudoeste 18 Sur 0 908.2 -- 46
2020-09-15 19:00:00 24.8 7 Sudoeste 22 Sudoeste 0 908.2 -- 40
2020-09-15 18:00:00 25.7 9 Sudoeste 27 Oeste 0 908.2 -- 38
2020-09-15 17:00:00 26 12 Sudoeste 28 Sudoeste 0 908.3 -- 41
2020-09-15 16:00:00 26 12 Sudoeste 25 Sudoeste 0 908.7 -- 39
2020-09-15 15:00:00 25.9 10 Sur 26 Sur 0 909.2 -- 41
2020-09-15 14:00:00 24 7 Sudoeste 21 Sudoeste 0 909.6 -- 48
2020-09-15 13:00:00 23.9 7 Sudoeste 18 Sudoeste 0 910.1 -- 49
2020-09-15 12:00:00 20.1 3 Este 10 Noroeste 0 910.6 -- 68
2020-09-15 11:00:00 16.2 3 Norte 10 Nordeste 0.2 910.9 -- 89
2020-09-15 10:00:00 15.6 2 Nordeste 15 Norte 0.4 910.7 -- 90
2020-09-15 09:00:00 15 7 Nordeste 17 Sudoeste 1.2 910.2 -- 92
2020-09-15 08:00:00 14.7 8 Sudoeste 15 Nordeste 0.2 911 -- 85
2020-09-15 07:00:00 15.2 3 Este 15 Sudoeste 0 909.8 -- 72
2020-09-15 06:00:00 12.8 0 Calma 8 Norte 0 909.8 -- 76
2020-09-15 05:00:00 13.2 3 Norte 8 Norte 0 909.8 -- 73
2020-09-15 04:00:00 14.1 5 Norte 10 Nordeste 0 909.6 -- 69
2020-09-15 03:00:00 16.1 4 Sudoeste 7 Sur 0 909.5 -- 64
2020-09-15 02:00:00 19.3 3 Sur 10 Sudoeste 0 909.3 -- 52
2020-09-15 01:00:00 20 5 Sur 9 Sudoeste 0 909.5 -- 47
2020-09-15 00:00:00 20.7 6 Sur 17 Sur 0 908.8 -- 44
2020-09-14 23:00:00 19.7 4 Nordeste 12 Norte 0 908.9 -- 45
2020-09-14 22:00:00 20.5 4 Nordeste 13 Norte 0 909 -- 42
2020-09-14 21:00:00 22.1 5 Nordeste 14 Sudeste 0 908.4 -- 36
2020-09-14 20:00:00 24.5 2 Sudeste 18 Sur 0 908.4 -- 29
2020-09-14 19:00:00 25.4 8 Sur 15 Sudoeste 0 908.8 -- 29
2020-09-14 18:00:00 25.4 7 Sur 22 Sudoeste 0 908.8 -- 29
2020-09-14 17:00:00 25.6 13 Sur 27 Sudoeste 0 909.2 -- 29
2020-09-14 16:00:00 25.8 15 Sudoeste 32 Sur 0 909.7 -- 27
2020-09-14 15:00:00 26.6 17 Sur 36 Sudoeste 0 910.2 -- 28
2020-09-14 14:00:00 26.9 14 Sur 39 Sudoeste 0 910.5 -- 27
2020-09-14 13:00:00 25.9 16 Sur 35 Sudoeste 0 910.8 -- 29
2020-09-14 12:00:00 23.9 15 Sur 31 Sudoeste 0 911.2 -- 34
2020-09-14 11:00:00 21.2 14 Sudoeste 25 Sudoeste 0 911.3 -- 46
2020-09-14 10:00:00 14.6 0 Calma 6 Sur 0 911.3 -- 71
2020-09-14 09:00:00 9.9 2 Sur 10 Norte 0 911.3 -- 83
2020-09-14 08:00:00 8 2 Norte 7 Norte 0 911 -- 84
2020-09-14 07:00:00 8.4 4 Nordeste 6 Norte 0 910.9 -- 81
2020-09-14 06:00:00 8.9 4 Nordeste 8 Nordeste 0 911.1 -- 78
2020-09-14 05:00:00 9.6 3 Norte 6 Nordeste 0 911.5 -- 75
2020-09-14 04:00:00 10.5 3 Norte 8 Norte 0 911.6 -- 72
2020-09-14 03:00:00 11.3 3 Nordeste 7 Nordeste 0 911.8 -- 69
2020-09-14 02:00:00 12.4 3 Norte 6 Nordeste 0 911.8 -- 65
2020-09-14 01:00:00 13.4 3 Nordeste 9 Norte 0 911.5 -- 62
2020-09-14 00:00:00 14.6 3 Nordeste 9 Norte 0 911.3 -- 58
2020-09-13 23:00:00 16.3 3 Nordeste 9 Nordeste 0 911 -- 52
2020-09-13 22:00:00 18.4 4 Norte 9 Noroeste 0 910.9 -- 46
2020-09-13 21:00:00 21.4 4 Nordeste 6 Norte 0 910 -- 37
2020-09-13 20:00:00 25.7 5 Sur 14 Oeste 0 909.7 -- 27
2020-09-13 19:00:00 27.9 9 Sudoeste 23 Sudoeste 0 909.6 -- 22
2020-09-13 18:00:00 29.4 3 Oeste 22 Sur 0 909.5 -- 22
2020-09-13 17:00:00 29.2 5 Sudeste 21 Sur 0 909.8 -- 21
2020-09-13 16:00:00 30 9 Sur 26 Sur 0 910.1 -- 21
2020-09-13 15:00:00 29.6 10 Sudoeste 29 Sur 0 910.6 -- 21
2020-09-13 14:00:00 28.6 14 Sudoeste 32 Sudoeste 0 911 -- 22
2020-09-13 13:00:00 27.7 12 Sur 28 Sudoeste 0 911.5 -- 24
2020-09-13 12:00:00 25.1 13 Sur 25 Sur 0 911.7 -- 30
2020-09-13 11:00:00 21.1 6 Sudoeste 12 Sur 0 911.9 -- 48
2020-09-13 10:00:00 14.4 2 Nordeste 5 Nordeste 0 911.8 -- 74
2020-09-13 09:00:00 9.7 3 Nordeste 7 Nordeste 0 911.5 -- 83
2020-09-13 08:00:00 8.3 3 Norte 6 Nordeste 0 911.1 -- 85
2020-09-13 07:00:00 9 4 Nordeste 6 Nordeste 0 910.8 -- 81
2020-09-13 06:00:00 9.8 0 Calma 5 Nordeste 0 910.5 -- 79
2020-09-13 05:00:00 11 2 Nordeste 6 Nordeste 0 910.4 -- 75
2020-09-13 04:00:00 12.1 3 Este 10 Norte 0 910.1 -- 72
2020-09-13 03:00:00 13.8 4 Norte 8 Nordeste 0 910 -- 63
2020-09-13 02:00:00 15.9 4 Este 11 Nordeste 0 910.1 -- 56
2020-09-13 01:00:00 17.6 4 Este 16 Nordeste 0 909.9 -- 48
2020-09-13 00:00:00 18.9 7 Nordeste 17 Nordeste 0 909.6 -- 45
2020-09-12 23:00:00 20 7 Nordeste 14 Norte 0 909.4 -- 43
2020-09-12 22:00:00 17.7 5 Nordeste 10 Nordeste 0 908.8 -- 37
2020-09-12 21:00:00 20.9 2 Norte 9 Nordeste 0 907.7 -- 28
2020-09-12 20:00:00 25.5 4 Nordeste 18 Nordeste 0 907.1 -- 20
2020-09-12 19:00:00 27.9 6 Nordeste 19 Nordeste 0 906.6 -- 18
2020-09-12 18:00:00 28.4 8 Norte 16 Nordeste 0 906.6 -- 20
2020-09-12 17:00:00 28.4 6 Norte 15 Norte 0 906.6 -- 18
2020-09-12 16:00:00 29.4 5 Sudoeste 17 Noroeste 0 906.9 -- 21
2020-09-12 15:00:00 29.2 5 Oeste 18 Sur 0 907.1 -- 21
2020-09-12 14:00:00 28.4 3 Sudeste 16 Noroeste 0 907.4 -- 26
2020-09-12 13:00:00 26.3 5 Nordeste 21 Norte 0 907.8 -- 32
2020-09-12 12:00:00 23.8 2 Norte 12 Este 0 908 -- 39
2020-09-12 11:00:00 21.3 4 Este 14 Norte 0 907.8 -- 47
2020-09-12 10:00:00 17 5 Nordeste 11 Nordeste 0 907.5 -- 63
2020-09-12 09:00:00 10.7 5 Norte 9 Nordeste 0 907.4 -- 81
2020-09-12 08:00:00 8.7 5 Nordeste 9 Nordeste 0 906.8 -- 84
2020-09-12 07:00:00 9.2 3 Nordeste 9 Norte 0 906.2 -- 82
2020-09-12 06:00:00 9.9 4 Norte 10 Norte 0 905.8 -- 80
2020-09-12 05:00:00 10.5 5 Norte 10 Nordeste 0 905.8 -- 79
2020-09-12 04:00:00 11.7 5 Nordeste 10 Norte 0 905.7 -- 76
2020-09-12 03:00:00 13.6 8 Norte 12 Norte 0 905.6 -- 71
2020-09-12 02:00:00 14.7 5 Nordeste 10 Nordeste 0 905.7 -- 68
2020-09-12 01:00:00 15.4 3 Norte 11 Nordeste 0 905.8 -- 66
2020-09-12 00:00:00 18 7 Nordeste 13 Nordeste 0 905.6 -- 58
2020-09-11 23:00:00 17.5 4 Nordeste 11 Nordeste 0 905.1 -- 58
2020-09-11 22:00:00 17 4 Este 9 Nordeste 0 904.5 -- 41
2020-09-11 21:00:00 19.9 3 Nordeste 7 Este 0 903.5 -- 30
2020-09-11 20:00:00 24.4 2 Noroeste 16 Norte 0 903.1 -- 23
2020-09-11 19:00:00 27.1 7 Norte 20 Norte 0 902.8 -- 19
2020-09-11 18:00:00 27.7 7 Norte 26 Noroeste 0 902.8 -- 19
2020-09-11 17:00:00 28.3 6 Noroeste 25 Norte 0 903 -- 19
2020-09-11 16:00:00 28 9 Noroeste 22 Nordeste 0 903.4 -- 20
2020-09-11 15:00:00 27.6 4 Oeste 21 Sudoeste 0 903.8 -- 23
2020-09-11 14:00:00 27.3 6 Noroeste 22 Sudoeste 0 904.3 -- 23
2020-09-11 13:00:00 26.1 7 Sudoeste 17 Sudoeste 0 904.7 -- 27
2020-09-11 12:00:00 23.3 8 Sudoeste 17 Sudoeste 0 905.1 -- 30
2020-09-11 11:00:00 18.3 2 Nordeste 7 Nordeste 0 905.3 -- 49
2020-09-11 10:00:00 12.5 0 Calma 7 Norte 0 905.4 -- 70
2020-09-11 09:00:00 7.6 3 Nordeste 6 Nordeste 0 905.6 -- 84
2020-09-11 08:00:00 5.1 3 Norte 6 Norte 0 905.3 -- 87
2020-09-11 07:00:00 5.8 4 Norte 6 Norte 0 905.3 -- 85
2020-09-11 06:00:00 6.6 2 Nordeste 5 Nordeste 0 905.3 -- 82
2020-09-11 05:00:00 7.6 0 Calma 5 Nordeste 0 905.5 -- 80
2020-09-11 04:00:00 8.4 2 Nordeste 7 Norte 0 905.8 -- 77
2020-09-11 03:00:00 9.9 2 Norte 10 Nordeste 0 906 -- 72
2020-09-11 02:00:00 11.7 6 Nordeste 12 Norte 0 906.1 -- 66
2020-09-11 01:00:00 12.5 6 Nordeste 9 Nordeste 0 906.5 -- 62
2020-09-11 00:00:00 15.6 3 Nordeste 11 Nordeste 0 906.5 -- 52
2020-09-10 23:00:00 17.6 5 Nordeste 13 Nordeste 0 906.3 -- 45
2020-09-10 22:00:00 18.4 4 Este 9 Nordeste 0 906.1 -- 43
2020-09-10 21:00:00 20.1 4 Nordeste 9 Nordeste 0 905.6 -- 36
2020-09-10 20:00:00 23.3 5 Norte 18 Nordeste 0 905.2 -- 28
2020-09-10 19:00:00 25.1 8 Nordeste 22 Norte 0 905.3 -- 27
2020-09-10 18:00:00 25.7 9 Nordeste 30 Nordeste 0 905.5 -- 25
2020-09-10 17:00:00 26.1 10 Norte 33 Norte 0 905.7 -- 25
2020-09-10 16:00:00 25.7 10 Norte 28 Nordeste 0 906.4 -- 28
2020-09-10 15:00:00 25.5 9 Nordeste 28 Nordeste 0 906.8 -- 29
2020-09-10 14:00:00 25 10 Norte 28 Nordeste 0 907.4 -- 31
2020-09-10 13:00:00 23.7 9 Nordeste 28 Nordeste 0 908 -- 36
2020-09-10 12:00:00 21.7 11 Nordeste 28 Norte 0 908.6 -- 43
2020-09-10 11:00:00 20.2 9 Nordeste 26 Nordeste 0 908.6 -- 47
2020-09-10 10:00:00 17 6 Nordeste 18 Norte 0 908.5 -- 61
2020-09-10 09:00:00 9.7 2 Sudoeste 4 Sudoeste 0 908.4 -- 89
2020-09-10 08:00:00 8.2 2 Noroeste 5 Este 0 908.2 -- 88
2020-09-10 07:00:00 9.3 2 Oeste 6 Este 0 908.2 -- 84
2020-09-10 06:00:00 10.4 3 Norte 10 Este 0 908.4 -- 82
2020-09-10 05:00:00 10 2 Este 6 Este 0 908.7 -- 84
2020-09-10 04:00:00 10.9 2 Norte 6 Este 0 908.8 -- 82
2020-09-10 03:00:00 11.8 2 Noroeste 5 Este 0 908.8 -- 80
2020-09-10 02:00:00 11.8 2 Sudoeste 5 Noroeste 0 909.1 -- 75
2020-09-10 01:00:00 13.7 2 Nordeste 6 Este 0 909.3 -- 66
2020-09-10 00:00:00 16.4 3 Este 15 Nordeste 0 909.3 -- 57
2020-09-09 23:00:00 14.9 0 Calma 9 Norte 0 909.1 -- 52
2020-09-09 22:00:00 17.2 0 Calma 8 Nordeste 0 908.6 -- 43
2020-09-09 21:00:00 20.6 4 Nordeste 12 Este 0 907.7 -- 32
2020-09-09 20:00:00 23.7 4 Nordeste 19 Norte 0 907.3 -- 27
2020-09-09 19:00:00 24.8 8 Norte 19 Nordeste 0 907.3 -- 25
2020-09-09 18:00:00 24.2 6 Norte 19 Nordeste 0 907.5 -- 27
2020-09-09 17:00:00 24.9 8 Nordeste 31 Norte 0 907.7 -- 25
2020-09-09 16:00:00 24.4 9 Nordeste 25 Norte 0 908.1 -- 27
2020-09-09 15:00:00 23.3 7 Norte 19 Nordeste 0 908.6 -- 28
2020-09-09 14:00:00 24.7 6 Sudeste 18 Noroeste 0 909 -- 27
2020-09-09 13:00:00 22.9 4 Nordeste 21 Sudoeste 0 909.7 -- 32
2020-09-09 12:00:00 20.7 3 Sudeste 14 Sur 0 910.4 -- 37
2020-09-09 11:00:00 17.9 8 Sur 13 Sur 0 910.4 -- 45
2020-09-09 10:00:00 12.3 2 Nordeste 5 Nordeste 0 910.5 -- 65
2020-09-09 09:00:00 7.6 5 Nordeste 9 Nordeste 0 910.6 -- 79
2020-09-09 08:00:00 5 4 Nordeste 7 Nordeste 0 910.4 -- 84
2020-09-09 07:00:00 5.6 3 Nordeste 8 Norte 0 910.1 -- 82
2020-09-09 06:00:00 6.2 3 Nordeste 6 Norte 0 909.8 -- 79
2020-09-09 05:00:00 7.2 2 Noroeste 8 Nordeste 0 909.8 -- 77
2020-09-09 04:00:00 8 3 Noroeste 12 Nordeste 0 910 -- 73
2020-09-09 03:00:00 8.7 7 Norte 12 Norte 0 910 -- 69
2020-09-09 02:00:00 9.8 4 Norte 9 Nordeste 0 910 -- 65
2020-09-09 01:00:00 11.5 3 Norte 9 Nordeste 0 910.4 -- 58
2020-09-09 00:00:00 14.2 5 Nordeste 10 Nordeste 0 910.6 -- 49
2020-09-08 23:00:00 15.4 6 Nordeste 13 Nordeste 0 910.3 -- 46
2020-09-08 22:00:00 17.4 6 Nordeste 21 Nordeste 0 910 -- 40
2020-09-08 21:00:00 19.1 7 Nordeste 26 Nordeste 0 909.4 -- 35
2020-09-08 20:00:00 21.1 9 Nordeste 26 Nordeste 0 908.9 -- 30
2020-09-08 19:00:00 22.6 9 Nordeste 27 Norte 0 908.8 -- 27
2020-09-08 18:00:00 22.8 10 Nordeste 29 Nordeste 0 908.6 -- 26
2020-09-08 17:00:00 23.3 5 Nordeste 22 Nordeste 0 908.7 -- 26
2020-09-08 16:00:00 22.6 7 Norte 24 Nordeste 0 909.1 -- 27
2020-09-08 15:00:00 22.4 6 Nordeste 34 Nordeste 0 909.6 -- 29
2020-09-08 14:00:00 21.8 9 Nordeste 24 Nordeste 0 910.1 -- 32
2020-09-08 13:00:00 20.6 4 Nordeste 16 Norte 0 910.5 -- 37
2020-09-08 12:00:00 17.1 5 Norte 19 Noroeste 0 911.1 -- 47
2020-09-08 11:00:00 14.5 8 Nordeste 19 Nordeste 0 911.3 -- 55
2020-09-08 10:00:00 10.9 7 Nordeste 13 Norte 0 911.2 -- 69
2020-09-08 09:00:00 5.4 4 Nordeste 6 Nordeste 0 911.4 -- 90
2020-09-08 08:00:00 3.1 3 Nordeste 7 Nordeste 0 911 -- 92
2020-09-08 07:00:00 4.1 5 Nordeste 10 Nordeste 0 910.5 -- 92
2020-09-08 06:00:00 4.4 3 Nordeste 7 Norte 0 910.4 -- 88
2020-09-08 05:00:00 5.5 3 Nordeste 8 Norte 0 910.3 -- 86
2020-09-08 04:00:00 7.2 2 Este 10 Nordeste 0 910.1 -- 78
2020-09-08 03:00:00 8.3 8 Nordeste 12 Nordeste 0 910.3 -- 75
2020-09-08 02:00:00 9.4 5 Nordeste 11 Norte 0 910.3 -- 68
2020-09-08 01:00:00 10.6 2 Noroeste 18 Nordeste 0 910.4 -- 60
2020-09-08 00:00:00 12.2 9 Nordeste 24 Nordeste 0 909.9 -- 53
2020-09-07 23:00:00 13.3 8 Nordeste 24 Nordeste 0 909.7 -- 46
2020-09-07 22:00:00 15 8 Nordeste 22 Nordeste 0 909.1 -- 41
2020-09-07 21:00:00 16.1 8 Nordeste 31 Nordeste 0 908.1 -- 38
2020-09-07 20:00:00 18.4 14 Nordeste 32 Nordeste 0 907.5 -- 32
2020-09-07 19:00:00 20.4 14 Nordeste 39 Nordeste 0 907.3 -- 26
2020-09-07 18:00:00 20.9 14 Nordeste 35 Nordeste 0 907.1 -- 24
2020-09-07 17:00:00 21 14 Nordeste 36 Nordeste 0 907.2 -- 24
2020-09-07 16:00:00 20.7 13 Nordeste 36 Nordeste 0 907.4 -- 25
2020-09-07 15:00:00 20 13 Norte 40 Nordeste 0 907.6 -- 30
2020-09-07 14:00:00 19.1 14 Nordeste 41 Nordeste 0 908 -- 33
2020-09-07 13:00:00 18.1 12 Nordeste 44 Norte 0 908.2 -- 41
2020-09-07 12:00:00 16 17 Nordeste 45 Nordeste 0 908.1 -- 49
2020-09-07 11:00:00 14.3 17 Nordeste 46 Nordeste 0 907.9 -- 55
2020-09-07 10:00:00 12.4 17 Nordeste 38 Nordeste 0 908 -- 62
2020-09-07 09:00:00 11 13 Nordeste 31 Nordeste 0 907.6 -- 67
2020-09-07 08:00:00 9.9 10 Nordeste 24 Nordeste 0 907.1 -- 73
2020-09-07 07:00:00 8.8 5 Nordeste 15 Nordeste 0 906.8 -- 81
2020-09-07 06:00:00 8.9 6 Nordeste 17 Nordeste 0 906.6 -- 80
2020-09-07 05:00:00 9.5 8 Nordeste 17 Nordeste 0 906.6 -- 79
2020-09-07 04:00:00 10.2 6 Nordeste 18 Nordeste 0 906.7 -- 77
2020-09-07 03:00:00 10.4 8 Nordeste 15 Nordeste 0 906.8 -- 75
2020-09-07 02:00:00 11.4 8 Nordeste 17 Nordeste 0 907 -- 72
2020-09-07 01:00:00 12.1 7 Nordeste 18 Nordeste 0 906.9 -- 70
2020-09-07 00:00:00 13.2 8 Nordeste 18 Nordeste 0 906.7 -- 68
2020-09-06 23:00:00 14.8 7 Nordeste 19 Norte 0 906.3 -- 63
2020-09-06 22:00:00 16.6 8 Nordeste 21 Nordeste 0 906 -- 58
2020-09-06 21:00:00 19.1 8 Nordeste 25 Nordeste 0 905.1 -- 53
2020-09-06 20:00:00 21.8 10 Nordeste 22 Norte 0 904.4 -- 49
2020-09-06 19:00:00 23.6 5 Norte 23 Norte 0 903.9 -- 48
2020-09-06 18:00:00 26.7 11 Norte 27 Norte 0 903.7 -- 30
2020-09-06 17:00:00 28 5 Noroeste 17 Sudoeste 0 904 -- 26
2020-09-06 16:00:00 29.6 5 Sudoeste 21 Sudoeste 0 904.3 -- 20
2020-09-06 15:00:00 28.7 6 Sur 22 Sur 0 904.8 -- 22
2020-09-06 14:00:00 27.9 6 Oeste 21 Sudoeste 0 905.6 -- 22
2020-09-06 13:00:00 26.9 12 Sur 24 Sudoeste 0 906.2 -- 24
2020-09-06 12:00:00 24.2 9 Sudoeste 21 Sudoeste 0 906.6 -- 30
2020-09-06 11:00:00 21 6 Sudoeste 12 Sudoeste 0 906.9 -- 44
2020-09-06 10:00:00 16.3 5 Nordeste 10 Norte 0 906.8 -- 73
2020-09-06 09:00:00 12.3 4 Nordeste 13 Nordeste 0 907.2 -- 89
2020-09-06 08:00:00 10.9 6 Nordeste 10 Norte 0 907.1 -- 90
2020-09-06 07:00:00 10.8 6 Nordeste 9 Nordeste 0 906.8 -- 90
2020-09-06 06:00:00 11.4 5 Nordeste 8 Nordeste 0 906.9 -- 89
2020-09-06 05:00:00 11.9 4 Nordeste 10 Norte 0 907 -- 86
2020-09-06 04:00:00 13.5 4 Nordeste 9 Nordeste 0 907.4 -- 82
2020-09-06 03:00:00 14.7 4 Nordeste 9 Nordeste 0 907.6 -- 77
2020-09-06 02:00:00 16.6 3 Este 11 Nordeste 0 907.7 -- 71
2020-09-06 01:00:00 18.5 5 Nordeste 13 Nordeste 0 907.5 -- 66
2020-09-06 00:00:00 19.3 5 Nordeste 17 Nordeste 0 907.5 -- 64
2020-09-05 23:00:00 20.3 10 Nordeste 18 Nordeste 0 907.3 -- 60
2020-09-05 22:00:00 21.5 7 Nordeste 15 Norte 0 906.7 -- 45
2020-09-05 21:00:00 23.9 7 Norte 24 Nordeste 0 906 -- 38
2020-09-05 20:00:00 26.6 10 Nordeste 23 Nordeste 0 905.7 -- 32
2020-09-05 19:00:00 28.5 8 Nordeste 24 Nordeste 0 905.7 -- 24
2020-09-05 18:00:00 29.6 9 Nordeste 24 Nordeste 0 905.8 -- 23
2020-09-05 17:00:00 29.2 6 Norte 14 Noroeste 0 906.2 -- 24
2020-09-05 16:00:00 28.6 5 Nordeste 19 Nordeste 0 906.9 -- 26
2020-09-05 15:00:00 30.2 7 Nordeste 17 Nordeste 0 907.5 -- 21
2020-09-05 14:00:00 29.5 4 Nordeste 15 Sudoeste 0 908.1 -- 24
2020-09-05 13:00:00 28.3 2 Sudeste 12 Sudoeste 0 908.7 -- 28
2020-09-05 12:00:00 24.8 4 Sudeste 13 Sur 0 909.1 -- 38
2020-09-05 11:00:00 21.1 6 Sur 17 Sur 0 909.5 -- 52
2020-09-05 10:00:00 15.9 2 Nordeste 7 Norte 0 909.5 -- 69
2020-09-05 09:00:00 10.5 5 Nordeste 8 Nordeste 0 909.5 -- 76
2020-09-05 08:00:00 7.7 3 Nordeste 7 Nordeste 0 909.4 -- 80
2020-09-05 07:00:00 8.1 4 Nordeste 8 Nordeste 0 909.1 -- 77
2020-09-05 06:00:00 8.6 4 Nordeste 8 Norte 0 909.2 -- 74
2020-09-05 05:00:00 8.9 3 Nordeste 7 Nordeste 0 909.5 -- 73
2020-09-05 04:00:00 9.8 0 Calma 6 Norte 0 909.7 -- 71
2020-09-05 03:00:00 10.6 3 Nordeste 6 Norte 0 910 -- 67
2020-09-05 02:00:00 11.7 3 Nordeste 6 Norte 0 910.1 -- 65
2020-09-05 01:00:00 12.8 0 Calma 4 Norte 0 910.1 -- 62
2020-09-05 00:00:00 14.5 3 Nordeste 9 Noroeste 0 910.2 -- 55
2020-09-04 23:00:00 16 3 Este 9 Norte 0 910.1 -- 49
2020-09-04 22:00:00 18.4 4 Norte 7 Norte 0 909.5 -- 42
2020-09-04 21:00:00 23.1 2 Sur 8 Sudoeste 0 909.1 -- 31
2020-09-04 20:00:00 27.5 4 Sudoeste 14 Sur 0 908.8 -- 22
2020-09-04 19:00:00 29.5 7 Sur 17 Sudoeste 0 909 -- 20
2020-09-04 18:00:00 29.8 6 Sudoeste 20 Sudoeste 0 909.1 -- 20
2020-09-04 17:00:00 29.7 5 Sudoeste 20 Sudoeste 0 909.5 -- 21
2020-09-04 16:00:00 29.5 4 Oeste 22 Sur 0 910.2 -- 21
2020-09-04 15:00:00 29.7 6 Sudoeste 21 Sudoeste 0 910.9 -- 23
2020-09-04 14:00:00 28.1 9 Sudoeste 24 Sudoeste 0 911.5 -- 28
2020-09-04 13:00:00 26.2 7 Sudoeste 19 Sur 0 912.1 -- 33
2020-09-04 12:00:00 23.9 10 Sudoeste 19 Sur 0 912.5 -- 42
2020-09-04 11:00:00 21.4 7 Sudoeste 17 Sur 0 912.6 -- 50
2020-09-04 10:00:00 15.2 0 Calma 5 Nordeste 0 912.5 -- 75
2020-09-04 09:00:00 10.1 3 Nordeste 8 Nordeste 0 912.3 -- 83
2020-09-04 08:00:00 7.8 4 Norte 7 Norte 0 912 -- 84
2020-09-04 07:00:00 8.1 5 Norte 7 Norte 0 911.7 -- 82
2020-09-04 06:00:00 8.5 3 Nordeste 4 Nordeste 0 911.5 -- 78
2020-09-04 05:00:00 9.4 2 Norte 6 Nordeste 0 911.4 -- 73
2020-09-04 04:00:00 10.4 3 Nordeste 7 Norte 0 911.5 -- 70
2020-09-04 03:00:00 11.8 3 Nordeste -- -- -- 911.5 -- 63
2020-09-04 02:00:00 -- -- -- -- -- -- -- -- --
2020-09-04 01:00:00 13.4 5 Norte 12 Norte 0 911.4 -- 54
2020-09-04 00:00:00 14.4 6 Norte -- -- -- 911.4 -- 48
2020-09-03 23:00:00 15.7 4 Norte 11 Nordeste 0 911.1 -- 43
2020-09-03 22:00:00 17.8 4 Nordeste 14 Norte 0 910.4 -- 38
2020-09-03 21:00:00 21.2 0 Calma 7 Sudoeste 0 909.4 -- 31
2020-09-03 20:00:00 25.8 3 Sudoeste 10 Sudoeste 0 908.8 -- 21
2020-09-03 19:00:00 28.4 5 Sudoeste 24 Sudoeste 0 908.7 -- 14
2020-09-03 18:00:00 28.5 3 Oeste 19 Sudoeste 0 908.6 -- 16
2020-09-03 17:00:00 28.5 5 Oeste 18 Sudoeste 0 908.7 -- 18
2020-09-03 16:00:00 28.8 4 Oeste 18 Sudoeste 0 909 -- 16
2020-09-03 15:00:00 27.8 10 Sur 19 Sur 0 909.4 -- 16
2020-09-03 14:00:00 27.6 8 Sur 21 Sur 0 909.7 -- 20
2020-09-03 13:00:00 25.7 8 Sudoeste 20 Sudoeste 0 909.9 -- 26
2020-09-03 12:00:00 22.7 8 Sudoeste 17 Sur 0 910.1 -- 42
2020-09-03 11:00:00 19.2 5 Sudoeste 11 Sudoeste 0 910.1 -- 56
2020-09-03 10:00:00 13.3 2 Nordeste 6 Nordeste 0 909.9 -- 60
2020-09-03 09:00:00 8.1 5 Nordeste 8 Norte 0 909.5 -- 74
2020-09-03 08:00:00 4.9 5 Nordeste 8 Norte 0 909.2 -- 82
2020-09-03 07:00:00 5.5 4 Nordeste 6 Nordeste 0 908.7 -- 80
2020-09-03 06:00:00 6.5 2 Este 7 Norte 0 908.4 -- 77
2020-09-03 05:00:00 7.4 3 Nordeste 10 Norte 0 908.2 -- 74
2020-09-03 04:00:00 8.5 6 Nordeste 12 Norte 0 908.1 -- 69
2020-09-03 03:00:00 9.4 5 Norte 11 Norte 0 908 -- 66
2020-09-03 02:00:00 10.7 5 Nordeste 12 Norte 0 908 -- 62
2020-09-03 01:00:00 11.4 7 Nordeste 10 Norte 0 907.9 -- 57
2020-09-03 00:00:00 13.3 3 Nordeste 10 Nordeste 0 907.8 -- 51
2020-09-02 23:00:00 13.4 3 Este 7 Nordeste 0 907.5 -- 50
2020-09-02 22:00:00 14.5 6 Nordeste 10 Norte 0 906.8 -- 45
2020-09-02 21:00:00 18.7 2 Nordeste 7 Norte 0 905.8 -- 34
2020-09-02 20:00:00 23.1 5 Nordeste 16 Norte 0 905.2 -- 24
2020-09-02 19:00:00 24.3 4 Nordeste 18 Nordeste 0 904.8 -- 22
2020-09-02 18:00:00 24.6 5 Nordeste 19 Norte 0 904.6 -- 21
2020-09-02 17:00:00 24.4 7 Norte 21 Nordeste 0 904.6 -- 20
2020-09-02 16:00:00 24.4 5 Este 22 Norte 0 904.7 -- 23
2020-09-02 15:00:00 24.1 5 Nordeste 21 Nordeste 0 905 -- 25
2020-09-02 14:00:00 23.3 6 Nordeste 21 Norte 0 905.3 -- 28
2020-09-02 13:00:00 21.7 5 Nordeste 17 Nordeste 0 905.6 -- 34
2020-09-02 12:00:00 19.1 6 Nordeste 20 Nordeste 0 905.9 -- 40
2020-09-02 11:00:00 17.1 10 Nordeste 23 Norte 0 905.8 -- 46
2020-09-02 10:00:00 15 8 Nordeste 23 Nordeste 0 905.3 -- 57
2020-09-02 09:00:00 12.1 6 Nordeste 12 Nordeste 0 905.2 -- 70
2020-09-02 08:00:00 9.3 7 Nordeste 13 Nordeste 0 904.9 -- 79
2020-09-02 07:00:00 9.6 7 Nordeste 12 Nordeste 0 904.4 -- 77
2020-09-02 06:00:00 8.2 6 Nordeste 10 Nordeste 0 904.1 -- 76
2020-09-02 05:00:00 8.7 6 Nordeste 9 Nordeste 0 904.1 -- 73
2020-09-02 04:00:00 9.3 6 Nordeste 14 Nordeste 0 904 -- 69
2020-09-02 03:00:00 11 6 Nordeste 12 Este 0 903.8 -- 63
2020-09-02 02:00:00 11.8 4 Este 11 Este 0 903.9 -- 60
2020-09-02 01:00:00 12.7 5 Nordeste 14 Nordeste 0 903.8 -- 57
2020-09-02 00:00:00 14.3 5 Nordeste 17 Nordeste 0 903.4 -- 50
2020-09-01 23:00:00 15.2 6 Nordeste 13 Nordeste 0 903 -- 44
2020-09-01 22:00:00 17.6 6 Nordeste 18 Nordeste 0 902.5 -- 37
2020-09-01 21:00:00 20.3 9 Nordeste 20 Nordeste 0 901.7 -- 28
2020-09-01 20:00:00 22.3 2 Oeste 8 Noroeste 0 900.9 -- 24
2020-09-01 19:00:00 23.3 6 Norte 22 Norte 0 900.7 -- 19
2020-09-01 18:00:00 23.7 5 Norte 26 Norte 0 900.7 -- 19
2020-09-01 17:00:00 23.4 10 Nordeste 23 Norte 0 900.9 -- 20
2020-09-01 16:00:00 24.8 5 Oeste 19 Sudoeste 0 901.2 -- 20
2020-09-01 15:00:00 23.4 5 Nordeste 17 Sudoeste 0 901.9 -- 21
2020-09-01 14:00:00 22.8 8 Norte 19 Noroeste 0 902.4 -- 22
2020-09-01 13:00:00 22.3 3 Este 14 Nordeste 0 902.8 -- 25
2020-09-01 12:00:00 19.4 4 Nordeste 10 Nordeste 0 903.5 -- 29
2020-09-01 11:00:00 16.2 3 Nordeste 9 Nordeste 0 903.9 -- 34
2020-09-01 10:00:00 12.5 3 Norte 8 Nordeste 0 903.5 -- 54
2020-09-01 09:00:00 9.7 4 Norte 7 Nordeste 0 903.5 -- 63
2020-09-01 08:00:00 7.9 0 Calma 10 Norte 0 903.5 -- 70
2020-09-01 07:00:00 7.5 2 Nordeste 6 Norte 0 903.9 -- 70
2020-09-01 06:00:00 7.3 0 Calma 6 Nordeste 0 903.8 -- 69
2020-09-01 05:00:00 7.4 3 Nordeste 8 Nordeste 0 904.1 -- 66
2020-09-01 04:00:00 7 4 Norte 8 Norte 0 904.4 -- 65
2020-09-01 03:00:00 7.2 2 Nordeste 8 Norte 0 905 -- 64
2020-09-01 02:00:00 7.1 4 Nordeste 9 Norte 0 905.3 -- 62
2020-09-01 01:00:00 7.9 4 Nordeste 8 Norte 0 905.4 -- 58
2020-09-01 00:00:00 9.1 4 Norte 8 Norte 0 905.4 -- 52
2020-08-31 23:00:00 10.9 0 Calma 6 Norte 0 905.4 -- 45
2020-08-31 22:00:00 14 2 Nordeste 6 Este 0 905.2 -- 33
2020-08-31 21:00:00 18.5 0 Calma 11 Sudoeste 0 904.7 -- 26
2020-08-31 20:00:00 20.8 6 Sudoeste 16 Sur 0 904.4 -- 22
2020-08-31 19:00:00 22.1 6 Sudoeste 20 Sur 0 904.6 -- 21
2020-08-31 18:00:00 22.5 6 Sudoeste 25 Sudoeste 0 904.8 -- 22
2020-08-31 17:00:00 22.5 9 Sur 24 Sudoeste 0 905.2 -- 18
2020-08-31 16:00:00 22.9 11 Sudoeste 23 Sur 0 905.8 -- 18
2020-08-31 15:00:00 22.7 5 Sur 21 Sur 0 906 -- 20
2020-08-31 14:00:00 21.4 5 Sur 23 Oeste 0 906.6 -- 20
2020-08-31 13:00:00 19.7 8 Sur 19 Sur 0 907.1 -- 20
2020-08-31 12:00:00 16.8 5 Sur 15 Sur 0 907.5 -- 34
2020-08-31 11:00:00 13.6 3 Sudeste 9 Nordeste 0 907.6 -- 49
2020-08-31 10:00:00 10.3 4 Nordeste 11 Nordeste 0 907.6 -- 72
2020-08-31 09:00:00 4.5 2 Nordeste 6 Nordeste 0 907.6 -- 91
2020-08-31 08:00:00 1.4 2 Nordeste 7 Norte 0 907.5 -- 93
2020-08-31 07:00:00 1.8 0 Calma 6 Nordeste 0 907.1 -- 90
2020-08-31 06:00:00 2.7 2 Nordeste 4 Nordeste 0 907 -- 89
2020-08-31 05:00:00 3.9 2 Oeste 9 Norte 0 907.1 -- 88
2020-08-31 04:00:00 5.3 6 Norte 10 Nordeste 0 907.1 -- 86
2020-08-31 03:00:00 6.3 6 Norte 10 Este 0 907.1 -- 81
2020-08-31 02:00:00 8.2 4 Este 17 Nordeste 0 907.2 -- 76
2020-08-31 01:00:00 9.8 7 Nordeste 18 Norte 0 907 -- 70
2020-08-31 00:00:00 10.5 6 Nordeste 17 Nordeste 0 906.9 -- 67
2020-08-30 23:00:00 11.6 7 Nordeste 20 Nordeste 0 906.4 -- 61
2020-08-30 22:00:00 13.3 7 Nordeste 19 Norte 0 905.5 -- 49
2020-08-30 21:00:00 15.3 5 Norte 23 Noroeste 0 904.4 -- 40
2020-08-30 20:00:00 17.5 5 Norte 20 Nordeste 0 903.5 -- 29
2020-08-30 19:00:00 18.2 7 Noroeste 22 Noroeste 0 903 -- 27
2020-08-30 18:00:00 18.7 8 Norte 25 Nordeste 0 902.6 -- 22
2020-08-30 17:00:00 18.4 8 Norte 22 Noroeste 0 902.7 -- 29
2020-08-30 16:00:00 17.8 11 Norte 24 Nordeste 0 902.9 -- 31
2020-08-30 15:00:00 17.8 3 Nordeste 21 Norte 0 903.1 -- 31
2020-08-30 14:00:00 17 6 Nordeste 23 Nordeste 0 903.4 -- 37
2020-08-30 13:00:00 15.7 7 Noroeste 24 Noroeste 0 903.5 -- 45
2020-08-30 12:00:00 14.6 6 Noroeste 21 Norte 0 903.6 -- 50
2020-08-30 11:00:00 12.5 7 Norte 22 Nordeste 0 903.5 -- 58
2020-08-30 10:00:00 10.6 7 Norte 19 Noroeste 0 903.1 -- 67
2020-08-30 09:00:00 5.2 0 Calma 6 Nordeste 0 902.7 -- 90
2020-08-30 08:00:00 2.6 2 Nordeste 6 Este 0 902.5 -- 92
2020-08-30 07:00:00 3.3 2 Sudeste 7 Nordeste 0 902.1 -- 91
2020-08-30 06:00:00 3.9 3 Norte 6 Nordeste 0 901.7 -- 91
2020-08-30 05:00:00 4.6 2 Nordeste 5 Oeste 0 901.7 -- 90
2020-08-30 04:00:00 5.6 2 Sur 5 Noroeste 0 901.5 -- 86
2020-08-30 03:00:00 7.1 0 Calma 6 Norte 0 901.4 -- 81
2020-08-30 02:00:00 8.6 3 Nordeste 21 Noroeste 0 901.6 -- 78
2020-08-30 01:00:00 8.9 3 Noroeste 13 Noroeste 0 901.2 -- 80
2020-08-30 00:00:00 10 3 Oeste 18 Norte 0 900.9 -- 78
2020-08-29 23:00:00 10.5 6 Noroeste 20 Noroeste 0 900 -- 78
2020-08-29 22:00:00 11.2 3 Noroeste 16 Norte 0 899.5 -- 75
2020-08-29 21:00:00 13.1 6 Noroeste 31 Norte 0 899 -- 61
2020-08-29 20:00:00 15.7 10 Noroeste 33 Norte 0 898.5 -- 45
2020-08-29 19:00:00 15.7 9 Noroeste 47 Noroeste 0 898 -- 46
2020-08-29 18:00:00 17.5 14 Norte 40 Norte 0 897 -- 40
2020-08-29 17:00:00 18.3 13 Noroeste 46 Norte 0 896.6 -- 33
2020-08-29 16:00:00 18.9 8 Noroeste 35 Noroeste 0 896.5 -- 33
2020-08-29 15:00:00 19.1 11 Noroeste 37 Norte 0 896.6 -- 32
2020-08-29 14:00:00 18.9 13 Norte 36 Noroeste 0 896.7 -- 30
2020-08-29 13:00:00 17.7 10 Norte 32 Noroeste 0 896.8 -- 39
2020-08-29 12:00:00 15.9 10 Norte 32 Noroeste 0 897.2 -- 47
2020-08-29 11:00:00 14 14 Norte 29 Norte 0 897.1 -- 52
2020-08-29 10:00:00 12.5 9 Nordeste 23 Nordeste 0 897 -- 65
2020-08-29 09:00:00 11.1 9 Nordeste 20 Noroeste 0 896.7 -- 68
2020-08-29 08:00:00 8.5 3 Norte 11 Nordeste 0 896.5 -- 79
2020-08-29 07:00:00 9.6 3 Nordeste 14 Nordeste 0 896.4 -- 75
2020-08-29 06:00:00 10.7 7 Nordeste 15 Nordeste 0 896.2 -- 70
2020-08-29 05:00:00 11.4 4 Nordeste 21 Norte 0 896.4 -- 68
2020-08-29 04:00:00 11.8 7 Nordeste 26 Nordeste 0 896.5 -- 69
2020-08-29 03:00:00 12.1 11 Nordeste 31 Nordeste 0 896.7 -- 71
2020-08-29 02:00:00 12.4 10 Nordeste 29 Nordeste 0 896.8 -- 73
2020-08-29 01:00:00 12.7 9 Nordeste 21 Nordeste 0 897 -- 77
2020-08-29 00:00:00 13.4 8 Nordeste 26 Norte 0 896.7 -- 75
2020-08-28 23:00:00 14.4 10 Nordeste 27 Nordeste 0 896.6 -- 75
2020-08-28 22:00:00 17.9 10 Nordeste 27 Nordeste 0 896.2 -- 64
2020-08-28 21:00:00 20.8 10 Norte 28 Nordeste 0 895.7 -- 58
2020-08-28 20:00:00 25.4 8 Noroeste 23 Noroeste 0 895.1 -- 28
2020-08-28 19:00:00 26.1 6 Noroeste 32 Noroeste 0 895.1 -- 28
2020-08-28 18:00:00 27.3 12 Noroeste 27 Noroeste 0 895 -- 30
2020-08-28 17:00:00 27.4 8 Noroeste 26 Noroeste 0 895.5 -- 32
2020-08-28 16:00:00 27.3 10 Noroeste 29 Noroeste 0 896 -- 34
2020-08-28 15:00:00 28.7 4 Norte 20 Norte 0 896.7 -- 31
2020-08-28 14:00:00 29 4 Noroeste 21 Noroeste 0 897.6 -- 29
2020-08-28 13:00:00 26.8 6 Nordeste 29 Noroeste 0 898.6 -- 34
2020-08-28 12:00:00 25 10 Noroeste 36 Norte 0 899.3 -- 36
2020-08-28 11:00:00 23.9 11 Norte 30 Noroeste 0 899.2 -- 33
2020-08-28 10:00:00 22 5 Este 14 Norte 0 899.4 -- 52
2020-08-28 09:00:00 17.3 4 Norte 8 Noroeste 0 899.7 -- 69
2020-08-28 08:00:00 13.1 2 Nordeste 6 Norte 0 900 -- 80
2020-08-28 07:00:00 13.2 2 Este 9 Norte 0 900.3 -- 77
2020-08-28 06:00:00 12.6 3 Norte 6 Norte 0 900.7 -- 76
2020-08-28 05:00:00 12.9 0 Calma 5 Noroeste 0 901.1 -- 71
2020-08-28 04:00:00 13.7 2 Este 8 Norte 0 901.6 -- 68
2020-08-28 03:00:00 14.4 4 Nordeste 7 Norte 0 902.2 -- 62
2020-08-28 02:00:00 14.9 3 Nordeste 6 Nordeste 0 903 -- 60
2020-08-28 01:00:00 16.3 3 Nordeste 12 Nordeste 0 903.2 -- 56
2020-08-28 00:00:00 17.2 4 Nordeste 9 Nordeste 0 903.4 -- 53
2020-08-27 23:00:00 19.1 3 Nordeste 8 Norte 0 903.7 -- 47
2020-08-27 22:00:00 22.3 3 Nordeste 7 Este 0 903.8 -- 36
2020-08-27 21:00:00 26.5 2 Nordeste 8 Noroeste 0 903.5 -- 29
2020-08-27 20:00:00 29.6 3 Noroeste 17 Norte 0 903.3 -- 23
2020-08-27 19:00:00 31.1 5 Noroeste 15 Norte 0 903.6 -- 17
2020-08-27 18:00:00 32.1 5 Norte 24 Nordeste 0 904.1 -- 19
2020-08-27 17:00:00 32.3 8 Noroeste 21 Norte 0 904.6 -- 21
2020-08-27 16:00:00 33.1 5 Sudoeste 22 Sur 0 905.2 -- 19
2020-08-27 15:00:00 33.2 6 Oeste 18 Norte 0 906 -- 19
2020-08-27 14:00:00 32.5 5 Noroeste 21 Sudoeste 0 906.5 -- 19
2020-08-27 13:00:00 31.2 5 Noroeste 20 Noroeste 0 907 -- 22
2020-08-27 12:00:00 28.9 4 Nordeste 11 Sudoeste 0 907.3 -- 28
2020-08-27 11:00:00 24.3 2 Nordeste 5 Nordeste 0 907.6 -- 46
2020-08-27 10:00:00 20.1 3 Nordeste 8 Nordeste 0 907.6 -- 62
2020-08-27 09:00:00 14.9 3 Nordeste 9 Nordeste 0 907.8 -- 78
2020-08-27 08:00:00 11.8 4 Nordeste 6 Nordeste 0 907.9 -- 83
2020-08-27 07:00:00 12.3 5 Nordeste 7 Nordeste 0 907.8 -- 81
2020-08-27 06:00:00 13.6 0 Calma 11 Norte 0 907.5 -- 78
2020-08-27 05:00:00 14.6 6 Nordeste 10 Norte 0 907.6 -- 73
2020-08-27 04:00:00 15.9 7 Norte 12 Nordeste 0 907.8 -- 68
2020-08-27 03:00:00 16.4 7 Nordeste 10 Norte 0 908 -- 66
2020-08-27 02:00:00 17.7 7 Norte 12 Norte 0 908.3 -- 60
2020-08-27 01:00:00 18.3 4 Nordeste 10 Nordeste 0 908.5 -- 56
2020-08-27 00:00:00 18.9 8 Nordeste 12 Norte 0 908.5 -- 46
2020-08-26 23:00:00 19.6 3 Norte 14 Nordeste 0 908.5 -- 42
2020-08-26 22:00:00 21.7 2 Nordeste 8 Este 0 908 -- 37
2020-08-26 21:00:00 26.6 0 Calma 12 Sudoeste 0 907.1 -- 28
2020-08-26 20:00:00 31.5 8 Sur 23 Sudoeste 0 906.6 -- 15
2020-08-26 19:00:00 32.7 7 Sudoeste 27 Sur 0 906.7 -- 14
2020-08-26 18:00:00 33.2 9 Sur 26 Sudoeste 0 906.8 -- 14
2020-08-26 17:00:00 33.5 14 Sur 30 Sur 0 907 -- 13
2020-08-26 16:00:00 33.7 16 Sudoeste 34 Sudoeste 0 907.4 -- 13
2020-08-26 15:00:00 33.4 17 Sudoeste 36 Sudoeste 0 907.6 -- 14
2020-08-26 14:00:00 32.8 6 Oeste 21 Sur 0 907.8 -- 18
2020-08-26 13:00:00 31.9 4 Oeste 16 Noroeste 0 908.3 -- 21
2020-08-26 12:00:00 28.8 8 Sur 16 Sur 0 908.4 -- 30
2020-08-26 11:00:00 25.1 6 Sudoeste 12 Sudoeste 0 908.4 -- 40
2020-08-26 10:00:00 18.8 2 Nordeste 5 Nordeste 0 908 -- 56
2020-08-26 09:00:00 13.5 2 Este 8 Norte 0 907.9 -- 71
2020-08-26 08:00:00 10.3 3 Nordeste 8 Norte 0 907.5 -- 78
2020-08-26 07:00:00 10.6 4 Nordeste 8 Nordeste 0 907.4 -- 76
2020-08-26 06:00:00 11.8 4 Nordeste 8 Nordeste 0 907.2 -- 72
2020-08-26 05:00:00 12.1 3 Nordeste 9 Noroeste 0 907.3 -- 70
2020-08-26 04:00:00 12.5 3 Nordeste 9 Nordeste 0 907.1 -- 68
2020-08-26 03:00:00 13.4 4 Nordeste 8 Norte 0 906.9 -- 66
2020-08-26 02:00:00 14.6 2 Nordeste 12 Nordeste 0 906.9 -- 63
2020-08-26 01:00:00 16.1 5 Norte 12 Norte 0 906.9 -- 56
2020-08-26 00:00:00 17.2 3 Nordeste 6 Nordeste 0 906.7 -- 54
2020-08-25 23:00:00 19 4 Nordeste -- -- -- 906.5 -- 49
2020-08-25 22:00:00 22.1 2 Norte 6 Norte 0 905.7 -- 41
2020-08-25 21:00:00 26.5 0 Calma 11 Sur 0 904.9 -- 29
2020-08-25 20:00:00 30.8 6 Sudoeste 19 Sur 0 904.4 -- 19
2020-08-25 19:00:00 32.2 12 Sur 24 Sur 0 904.5 -- 18
2020-08-25 18:00:00 32.7 9 Sudoeste 26 Sur 0 904.4 -- 19
2020-08-25 17:00:00 32.5 7 Sur 22 Sur 0 904.5 -- 18
2020-08-25 16:00:00 32.5 14 Sur 31 Sudoeste 0 904.8 -- 17
2020-08-25 15:00:00 32.5 11 Sudoeste 32 Sur 0 905.3 -- 17
2020-08-25 14:00:00 31.4 14 Sur 32 Sur 0 905.5 -- 21
2020-08-25 13:00:00 30 12 Sudoeste 30 Sur 0 905.9 -- 30
2020-08-25 12:00:00 27.1 9 Sudoeste 22 Sur 0 905.9 -- 43
2020-08-25 11:00:00 23.9 7 Sur 17 Sur 0 905.9 -- 60
2020-08-25 10:00:00 18.7 3 Sudoeste 6 Sudoeste 0 905.7 -- 77
2020-08-25 09:00:00 13.7 4 Nordeste 9 Nordeste 0 905.6 -- 82
2020-08-25 08:00:00 10.5 0 Calma 6 Norte 0 905.5 -- 85
2020-08-25 07:00:00 10.8 3 Nordeste 9 Nordeste 0 905.2 -- 83
2020-08-25 06:00:00 11.2 4 Norte 9 Norte 0 905.1 -- 82
2020-08-25 05:00:00 11.9 3 Norte 11 Norte 0 905.2 -- 80
2020-08-25 04:00:00 12.4 3 Nordeste 9 Norte 0 905.1 -- 77
2020-08-25 03:00:00 13 3 Nordeste -- -- -- 905 -- 74
2020-08-25 02:00:00 -- -- -- -- -- -- -- -- --
2020-08-25 01:00:00 15.5 5 Norte 12 Nordeste 0 905.3 -- 60
2020-08-25 00:00:00 16.2 5 Norte 7 Norte 0 905.4 -- 57
2020-08-24 23:00:00 18.2 3 Nordeste 6 Norte 0 905.2 -- 52
2020-08-24 22:00:00 21.1 3 Nordeste 6 Este 0 904.7 -- 44
2020-08-24 21:00:00 24.8 0 Calma 9 Sudoeste 0 904 -- 36
2020-08-24 20:00:00 28.1 2 Sur -- -- -- 903.6 -- 28
2020-08-24 19:00:00 -- -- -- -- -- -- -- -- --
2020-08-24 18:00:00 30.2 10 Sudoeste 20 Sur 0 904 -- 20
2020-08-24 17:00:00 30.2 9 Sur 25 Sur 0 904.2 -- 23
2020-08-24 16:00:00 29.6 9 Sur 27 Sur 0 905 -- 24
2020-08-24 15:00:00 29.6 9 Sudoeste 27 Sudoeste 0 905.3 -- 27
2020-08-24 14:00:00 29 5 Sudoeste 22 Sudoeste 0 905.7 -- 31
2020-08-24 13:00:00 27.4 6 Sur 17 Sur 0 906.3 -- 36
2020-08-24 12:00:00 24.5 6 Este 14 Nordeste 0 906.7 -- 47
2020-08-24 11:00:00 22.4 4 Este 12 Nordeste 0 907 -- 51
2020-08-24 10:00:00 19.8 5 Nordeste 12 Nordeste 0 907.1 -- 53
2020-08-24 09:00:00 16.4 6 Nordeste 14 Nordeste 0 907.2 -- 65
2020-08-24 08:00:00 14 2 Este 8 Este 0 907.2 -- 73
2020-08-24 07:00:00 14.1 2 Nordeste 10 Nordeste 0 907 -- 72
2020-08-24 06:00:00 14.3 6 Nordeste 9 Nordeste 0 906.9 -- 71
2020-08-24 05:00:00 13.9 5 Nordeste 11 Nordeste 0 907.1 -- 72
2020-08-24 04:00:00 13.4 8 Nordeste 13 Nordeste 0 907.2 -- 72
2020-08-24 03:00:00 14.3 6 Nordeste 12 Nordeste 0 907.4 -- 68
2020-08-24 02:00:00 14.5 5 Nordeste 13 Nordeste 0 907.7 -- 65
2020-08-24 01:00:00 16.5 6 Nordeste 13 Nordeste 0 907.9 -- 57
2020-08-24 00:00:00 17.7 4 Nordeste 15 Nordeste 0 907.9 -- 51